Messwerte Anderson Municipal

Temperatur

Temperatur
°C
1618801200 23.00 23.00 12
1618804800 0.00 0.00 9
1618808400 1.00 1.00 9
1618812000 2.00 2.00 8
1618815600 3.00 3.00 9
1618819200 4.00 4.00 9
1618822800 5.00 5.00 8
1618826400 6.00 6.00 8
1618830000 7.00 7.00 6
1618833600 8.00 8.00 5
1618837200 9.00 9.00 8
1618840800 10.00 10.00 11
1618844400 11.00 11.00 14
1618848000 12.00 12.00 15
1618851600 13.00 13.00
1618855200 14.00 14.00 17
1618858800 15.00 15.00
1618862400 16.00 16.00 18
1618866000 17.00 17.00
1618869600 18.00 18.00
1618873200 19.00 19.00 18
1618876800 20.00 20.00 13
1618880400 21.00 21.00 9
1618884000 22.00 22.00 8

Aktuellste Messwerte

Wettercharakter
Wetter: klar
Temperatur
7 °C
Feuchtigkeit
75 %
Wind
15 km/hWindrichtung: Nordwest
Luftdruck
1015 hPa
Messzeit: 19. April 2021, 23.00Datenquelle: METAR

Weitere Messstationen in der Nähe

Messstation Temperatur Entfernung
Muncie 8 °C 23 km
Kokomo 6 °C 59 km
Shelbyville 10 °C 62 km
Indianapolis 8 °C 66 km
Indianapolis 8 °C 70 km
Grissom Air Force Base / Peru 6 °C 74 km
Columbus / Bakalar 12 °C 99 km

Wind

Windrichtung Böen Mittelwind
° km/h km/h
1618801200 23.00 22.00 - 23.00 0
1618804800 0.00 23.00 - 0.00 0
1618808400 1.00 0.00 - 1.00 0
1618812000 2.00 1.00 - 2.00 0
1618815600 3.00 2.00 - 3.00 230° 5
1618819200 4.00 3.00 - 4.00 240° 5
1618822800 5.00 4.00 - 5.00 240° 5
1618826400 6.00 5.00 - 6.00 0
1618830000 7.00 6.00 - 7.00 0
1618833600 8.00 7.00 - 8.00 200° 5
1618837200 9.00 8.00 - 9.00 230° 10
1618840800 10.00 9.00 - 10.00 250° 10
1618844400 11.00 10.00 - 11.00 240° 10
1618848000 12.00 11.00 - 12.00 260° 30 20
1618851600 13.00 12.00 - 13.00
1618855200 14.00 13.00 - 14.00 270° 35 25
1618858800 15.00 14.00 - 15.00
1618862400 16.00 15.00 - 16.00 250° 35 15
1618866000 17.00 16.00 - 17.00
1618869600 18.00 17.00 - 18.00
1618873200 19.00 18.00 - 19.00 250° 40 15
1618876800 20.00 19.00 - 20.00 330° 35 25
1618880400 21.00 20.00 - 21.00 350° 35 30
1618884000 22.00 21.00 - 22.00 330° 30 20

Ihre Wetterstation

Fehlt Ihre Wetterstation auf unserem Portal?

Schreiben Sie an network@meteonews.ch

Klima

Wann ist es am wärmsten? Wann regnet es am wenigsten? Unsere Klimadaten geben Auskunft.